Mirai, Brazil
Current Conditions -  °F | °C
As of 7:00 PM on Friday 28 Nov 2014 (Local Time) from SBJF Reporting Station
Broken Clouds Broken Clouds  
Wind Chill: 70°   Ceiling: 8000
Heat Index: 70°   Visibility: 6mi
Dew Point: 64°   Wind: 9mph
Humidity: 83%   Direction: 210°SSW
Pressure: 30.06"   Gusts: NA
Location:  21.2°S, 42.61°W
Report Text: SBJF 282100Z 21008KT 9999 SCT012 BKN080 21/18 Q1018
Loading
Personal Weather Stations






























Interactive Weather Map New forecast layout! Learn more

10-Day Weather Forecast

Advertisements
Track Severe Weather on mobile